Time;durP1;ratioP1;P1;durP2;ratioP2;P2;SDS_P1;SDS_P2;PMS_P1;PMS_P2;Temp;Humidity;BMP_temperature;BMP_pressure;BME280_temperature;BME280_humidity;BME280_pressure;Samples;Min_cycle;Max_cycle;Signal;HPM_P1;HPM_P2
2022/12/17 13:08:07;;;;;;;6.30;5.80;;;18.40;32.20;;;;;;5021683;28;20873;-59
2022/12/17 13:10:34;;;;;;;6.53;6.03;;;18.40;32.20;;;;;;5021709;28;20454;-60
2022/12/17 13:13:25;;;;;;;5.90;5.40;;;18.40;32.20;;;;;;5022558;28;20423;-61
2022/12/17 13:16:00;;;;;;;5.50;5.07;;;18.40;32.20;;;;;;5019207;28;20463;-59
2022/12/17 13:18:28;;;;;;;6.03;5.43;;;18.40;32.20;;;;;;5022596;28;20410;-59
2022/12/17 13:21:01;;;;;;;6.43;5.90;;;18.40;32.20;;;;;;5018230;28;20458;-59
2022/12/17 13:23:34;;;;;;;5.50;5.00;;;18.40;32.20;;;;;;5019832;28;20451;-61
2022/12/17 13:26:12;;;;;;;6.40;5.90;;;18.40;32.20;;;;;;5015707;28;20448;-59
2022/12/17 13:28:38;;;;;;;6.97;6.30;;;18.40;32.20;;;;;;5017787;28;20460;-59
2022/12/17 13:31:13;;;;;;;5.83;5.43;;;18.40;32.20;;;;;;5020904;28;20464;-62
2022/12/17 13:33:48;;;;;;;5.90;5.50;;;18.40;32.30;;;;;;5019698;28;20779;-59
2022/12/17 13:36:35;;;;;;;5.93;5.40;;;18.40;32.20;;;;;;5017155;28;20437;-60
2022/12/17 13:39:35;;;;;;;6.00;5.53;;;18.40;32.30;;;;;;5020212;28;20458;-60
2022/12/17 13:42:02;;;;;;;6.20;5.80;;;18.40;32.30;;;;;;5016695;28;20452;-59
2022/12/17 13:44:38;;;;;;;6.03;5.57;;;18.40;32.30;;;;;;5019605;28;20430;-59
2022/12/17 13:47:04;;;;;;;6.00;5.60;;;18.40;32.20;;;;;;5019433;28;20766;-61
2022/12/17 13:49:31;;;;;;;6.23;5.63;;;18.30;32.20;;;;;;5023237;28;20453;-61
2022/12/17 13:52:04;;;;;;;6.50;5.90;;;18.30;32.10;;;;;;5020391;28;20234;-60
2022/12/17 13:54:30;;;;;;;5.17;4.60;;;18.40;32.20;;;;;;5020418;28;20533;-60
2022/12/17 13:57:16;;;;;;;5.57;5.17;;;18.30;32.10;;;;;;5019554;28;20787;-59
2022/12/17 13:59:50;;;;;;;5.20;4.90;;;18.40;32.20;;;;;;5021725;28;20225;-59
2022/12/17 14:02:33;;;;;;;5.60;5.10;;;18.40;32.20;;;;;;5019136;28;20767;-59
2022/12/17 14:05:00;;;;;;;5.67;5.10;;;18.30;32.10;;;;;;5020482;28;20460;-59
2022/12/17 14:07:27;;;;;;;5.93;5.43;;;18.30;32.10;;;;;;5022407;28;20421;-61
2022/12/17 14:09:54;;;;;;;6.17;5.67;;;18.30;32.10;;;;;;5018265;28;22820;-59
2022/12/17 14:12:24;;;;;;;5.90;5.23;;;18.30;32.10;;;;;;5018631;28;20508;-59
2022/12/17 14:15:07;;;;;;;5.60;5.20;;;18.30;32.10;;;;;;5018496;28;20590;-59
2022/12/17 14:17:39;;;;;;;6.10;5.63;;;18.40;32.20;;;;;;5021209;28;20427;-59
2022/12/17 14:20:10;;;;;;;6.20;4.93;;;18.40;33.00;;;;;;5015534;28;20818;-60
2022/12/17 14:22:45;;;;;;;5.27;4.97;;;18.40;32.20;;;;;;5011483;28;20464;-60
2022/12/17 14:25:28;;;;;;;6.63;5.53;;;18.40;32.20;;;;;;5012391;28;20431;-61
2022/12/17 14:28:03;;;;;;;5.37;4.90;;;18.40;32.20;;;;;;5016246;28;20447;-60
2022/12/17 14:30:38;;;;;;;5.00;4.60;;;18.40;32.30;;;;;;5008230;28;20466;-60
2022/12/17 14:33:26;;;;;;;5.30;5.00;;;18.40;32.20;;;;;;5013004;28;21156;-60
2022/12/17 14:35:53;;;;;;;5.27;4.87;;;18.30;32.10;;;;;;5009555;28;20533;-58
2022/12/17 14:38:19;;;;;;;4.80;4.50;;;18.30;32.10;;;;;;5015407;28;20477;-59
2022/12/17 14:40:45;;;;;;;5.80;5.40;;;18.30;32.10;;;;;;5008083;28;20468;-59
2022/12/17 14:43:12;;;;;;;5.70;4.50;;;18.30;32.90;;;;;;5009992;28;20553;-59
2022/12/17 14:46:19;;;;;;;6.13;5.60;;;18.40;32.30;;;;;;5013256;28;20229;-59
2022/12/17 14:51:22;;;;;;;5.10;4.60;;;18.40;32.20;;;;;;5006136;28;20516;-59
2022/12/17 14:53:48;;;;;;;5.57;5.07;;;18.30;32.10;;;;;;5021845;28;20489;-59
2022/12/17 14:56:22;;;;;;;6.00;5.50;;;18.30;32.10;;;;;;5024518;28;21092;-59
2022/12/17 14:58:47;;;;;;;5.00;4.47;;;18.30;32.10;;;;;;5021518;28;20678;-59
2022/12/17 15:01:14;;;;;;;6.20;5.20;;;18.30;32.10;;;;;;5007649;28;20434;-59
2022/12/17 15:03:42;;;;;;;5.07;4.77;;;18.30;32.20;;;;;;5007629;28;20358;-59
2022/12/17 15:06:10;;;;;;;5.83;5.43;;;18.30;32.20;;;;;;5016409;28;20445;-59
2022/12/17 15:08:47;;;;;;;5.17;4.67;;;18.30;32.10;;;;;;5006469;28;21076;-60
2022/12/17 15:11:15;;;;;;;5.77;5.17;;;18.30;32.10;;;;;;5017940;28;20440;-59
2022/12/17 15:13:41;;;;;;;5.03;4.60;;;18.30;32.10;;;;;;5005715;28;20438;-60
2022/12/17 15:16:06;;;;;;;6.27;5.70;;;18.30;32.10;;;;;;5014498;28;20414;-59
2022/12/17 15:18:32;;;;;;;5.67;5.07;;;18.30;32.10;;;;;;5016225;28;20582;-60
2022/12/17 15:20:58;;;;;;;5.80;5.40;;;18.30;32.10;;;;;;5007696;28;20523;-58
2022/12/17 15:23:24;;;;;;;6.07;5.57;;;18.30;32.10;;;;;;5016298;28;20219;-59
2022/12/17 15:25:51;;;;;;;5.60;5.13;;;18.30;32.10;;;;;;5010630;28;20612;-57
2022/12/17 15:28:18;;;;;;;5.67;5.17;;;18.30;32.10;;;;;;5016672;28;20717;-58
2022/12/17 15:30:45;;;;;;;5.10;4.80;;;18.30;32.10;;;;;;5019796;28;20464;-57
2022/12/17 15:33:11;;;;;;;5.97;5.57;;;18.30;32.20;;;;;;5010491;28;20423;-58
2022/12/17 15:35:37;;;;;;;6.20;5.80;;;18.30;32.20;;;;;;5010688;28;20414;-59
2022/12/17 15:38:04;;;;;;;5.63;5.20;;;18.30;32.10;;;;;;5012380;28;20701;-59
2022/12/17 15:40:30;;;;;;;5.90;5.40;;;18.30;32.10;;;;;;5007052;28;20452;-57
2022/12/17 15:43:11;;;;;;;6.10;5.70;;;18.30;32.20;;;;;;5012932;28;22485;-58
2022/12/17 15:45:38;;;;;;;5.33;4.87;;;18.30;32.10;;;;;;5009530;28;20237;-58
2022/12/17 15:48:04;;;;;;;5.53;5.23;;;18.30;32.10;;;;;;5013766;28;20490;-57
2022/12/17 15:50:29;;;;;;;5.40;5.00;;;18.30;32.10;;;;;;5021429;28;20914;-57
2022/12/17 15:52:55;;;;;;;6.30;5.80;;;18.30;32.10;;;;;;5007943;28;20422;-57
2022/12/17 15:55:20;;;;;;;5.83;5.50;;;18.30;32.20;;;;;;5017674;28;20254;-58
2022/12/17 15:57:46;;;;;;;6.00;5.70;;;18.30;32.10;;;;;;5018125;28;20554;-58
2022/12/17 16:00:12;;;;;;;5.83;5.43;;;18.30;32.10;;;;;;5019377;28;20226;-57
2022/12/17 16:02:37;;;;;;;6.50;5.70;;;18.30;32.10;;;;;;5019111;28;20226;-58
2022/12/17 16:05:04;;;;;;;7.20;6.60;;;18.30;32.10;;;;;;5019348;28;20226;-60
2022/12/17 16:07:29;;;;;;;6.67;6.00;;;18.30;32.10;;;;;;5021649;28;20243;-60
2022/12/17 16:09:55;;;;;;;7.10;6.50;;;18.30;32.20;;;;;;5020698;28;20970;-59
2022/12/17 16:12:20;;;;;;;6.13;5.73;;;18.30;32.10;;;;;;5017651;28;20241;-59
2022/12/17 16:14:46;;;;;;;6.00;5.60;;;18.30;32.10;;;;;;5016520;28;20234;-58
2022/12/17 16:17:11;;;;;;;7.03;5.80;;;18.30;32.20;;;;;;5019511;28;20234;-60
2022/12/17 16:19:37;;;;;;;6.60;6.00;;;18.40;32.20;;;;;;5020067;28;20722;-59
2022/12/17 16:22:02;;;;;;;6.20;5.70;;;18.30;32.10;;;;;;5021330;28;20922;-60
2022/12/17 16:24:28;;;;;;;7.10;6.30;;;18.40;32.30;;;;;;5022582;28;20574;-59
2022/12/17 16:26:53;;;;;;;7.10;6.40;;;18.40;32.20;;;;;;5021443;28;21431;-58
2022/12/17 16:29:19;;;;;;;7.30;6.33;;;18.40;32.20;;;;;;5022841;28;20226;-60
2022/12/17 16:31:45;;;;;;;6.67;6.00;;;18.30;32.10;;;;;;5022126;28;20234;-59
2022/12/17 16:34:11;;;;;;;7.73;7.03;;;18.40;32.20;;;;;;5022286;28;20248;-60
2022/12/17 16:36:37;;;;;;;7.30;6.60;;;18.40;32.20;;;;;;5016257;28;20337;-59
2022/12/17 16:39:04;;;;;;;6.87;6.43;;;18.40;32.30;;;;;;5022759;28;20460;-59
2022/12/17 16:41:29;;;;;;;6.93;6.43;;;18.40;32.20;;;;;;5021019;28;20272;-59
2022/12/17 16:43:55;;;;;;;6.80;6.30;;;18.40;32.20;;;;;;5019566;28;20418;-59
2022/12/17 16:46:41;;;;;;;7.17;6.57;;;18.40;32.20;;;;;;5020542;28;20540;-59
2022/12/17 16:49:18;;;;;;;6.80;6.30;;;18.40;32.20;;;;;;5021791;28;20578;-59
2022/12/17 16:51:45;;;;;;;7.50;6.83;;;18.40;32.20;;;;;;5021463;28;20850;-59
2022/12/17 16:54:17;;;;;;;6.80;6.30;;;18.40;33.00;;;;;;5020720;28;20434;-59
2022/12/17 16:56:43;;;;;;;6.30;5.90;;;18.40;32.30;;;;;;5022106;28;20430;-59
2022/12/17 16:59:11;;;;;;;8.77;7.87;;;18.40;32.20;;;;;;5018734;28;20444;-58
2022/12/17 17:01:38;;;;;;;7.40;6.70;;;18.40;32.20;;;;;;5021089;28;20452;-58
2022/12/17 17:04:05;;;;;;;6.73;6.17;;;18.40;32.30;;;;;;5022341;28;21188;-59
2022/12/17 17:06:31;;;;;;;7.23;6.63;;;18.40;32.20;;;;;;5018235;28;20437;-58
2022/12/17 17:08:57;;;;;;;7.00;6.50;;;18.40;32.20;;;;;;5016319;28;20831;-60
2022/12/17 17:11:24;;;;;;;7.23;6.53;;;18.40;32.20;;;;;;5011852;28;20281;-60
2022/12/17 17:13:51;;;;;;;6.90;6.40;;;18.40;32.20;;;;;;5013572;28;20399;-60
2022/12/17 17:16:18;;;;;;;7.23;6.73;;;18.40;32.20;;;;;;5018236;28;20452;-60
2022/12/17 17:18:44;;;;;;;7.30;6.70;;;18.40;32.20;;;;;;5020299;28;21090;-60
2022/12/17 17:21:24;;;;;;;6.73;6.30;;;18.40;32.20;;;;;;5020979;28;20469;-59
2022/12/17 17:23:56;;;;;;;7.67;6.97;;;18.40;32.20;;;;;;5016140;28;20214;-61
2022/12/17 17:26:23;;;;;;;7.83;7.10;;;18.40;32.20;;;;;;5018770;28;21392;-59
2022/12/17 17:28:48;;;;;;;6.50;6.10;;;18.40;32.20;;;;;;5016250;28;20463;-59
2022/12/17 17:31:15;;;;;;;7.10;6.50;;;18.40;32.20;;;;;;5017400;28;20472;-60
2022/12/17 17:33:45;;;;;;;7.63;7.07;;;18.40;32.20;;;;;;5019130;28;20250;-60
2022/12/17 17:36:14;;;;;;;7.03;6.50;;;18.40;32.30;;;;;;5015690;28;20465;-60
2022/12/17 17:38:40;;;;;;;7.37;6.77;;;18.40;32.20;;;;;;5016659;28;20544;-59
2022/12/17 17:41:09;;;;;;;6.87;6.37;;;18.40;32.20;;;;;;5015998;28;20469;-59
2022/12/17 17:43:35;;;;;;;6.90;6.40;;;18.40;32.20;;;;;;5016943;28;20419;-60
2022/12/17 17:46:04;;;;;;;7.00;6.40;;;18.40;32.20;;;;;;5015765;28;20511;-59
2022/12/17 17:48:34;;;;;;;7.57;6.87;;;18.40;32.20;;;;;;5016305;28;20611;-61
2022/12/17 17:51:02;;;;;;;6.67;6.17;;;18.40;32.20;;;;;;5018224;28;20475;-60
2022/12/17 17:53:28;;;;;;;7.50;6.90;;;18.40;32.20;;;;;;5016607;28;20443;-59
2022/12/17 17:55:54;;;;;;;6.77;6.20;;;18.40;32.20;;;;;;5019530;28;20431;-59
2022/12/17 17:58:20;;;;;;;7.03;6.43;;;18.40;32.30;;;;;;5017995;28;20222;-60
2022/12/17 18:00:46;;;;;;;7.00;6.40;;;18.40;32.20;;;;;;5019708;28;20426;-59
2022/12/17 18:03:11;;;;;;;7.27;6.67;;;18.40;32.20;;;;;;5018343;28;21621;-59
2022/12/17 18:05:38;;;;;;;6.73;6.23;;;18.40;33.00;;;;;;5011644;28;20434;-60
2022/12/17 18:08:04;;;;;;;7.10;6.60;;;18.40;32.20;;;;;;5014128;28;20281;-61
2022/12/17 18:10:30;;;;;;;6.37;5.87;;;18.40;32.20;;;;;;5014442;28;20496;-60
2022/12/17 18:15:39;;;;;;;6.80;6.30;;;18.40;31.60;;;;;;5015739;28;21283;-59
2022/12/17 18:18:05;;;;;;;6.90;6.30;;;18.40;32.20;;;;;;5012243;28;20431;-60
2022/12/17 18:20:31;;;;;;;7.70;7.10;;;18.40;32.30;;;;;;5016327;28;20223;-59
2022/12/17 18:22:56;;;;;;;6.90;6.40;;;18.40;32.20;;;;;;5017670;28;20249;-59
2022/12/17 18:25:22;;;;;;;7.60;6.70;;;18.40;32.20;;;;;;5015234;28;20662;-59
2022/12/17 18:27:50;;;;;;;8.13;7.43;;;18.40;32.20;;;;;;5016331;28;20239;-59
2022/12/17 18:30:15;;;;;;;6.30;5.70;;;18.40;32.30;;;;;;5017014;28;20230;-59
2022/12/17 18:32:41;;;;;;;7.93;6.90;;;18.40;32.20;;;;;;5019401;28;20442;-59
2022/12/17 18:35:07;;;;;;;6.87;6.27;;;18.40;32.20;;;;;;5013967;28;20234;-60
2022/12/17 18:37:32;;;;;;;10.37;6.20;;;18.40;32.30;;;;;;5020821;28;20572;-59
2022/12/17 18:39:58;;;;;;;6.57;6.07;;;18.40;32.20;;;;;;5018796;28;20553;-60
2022/12/17 18:45:08;;;;;;;7.40;6.57;;;18.40;32.20;;;;;;5014890;28;20365;-59
2022/12/17 18:47:33;;;;;;;6.47;6.00;;;18.40;32.20;;;;;;5018744;28;20410;-60
2022/12/17 18:49:59;;;;;;;6.60;6.20;;;18.40;32.20;;;;;;5016718;28;20221;-60
2022/12/17 18:52:24;;;;;;;6.70;6.20;;;18.40;32.20;;;;;;5008748;28;20250;-60
2022/12/17 18:54:50;;;;;;;6.27;5.87;;;18.40;32.30;;;;;;5014314;28;20253;-59
2022/12/17 18:57:16;;;;;;;6.13;5.70;;;18.40;32.20;;;;;;5014430;28;20305;-59
2022/12/17 18:59:41;;;;;;;7.23;6.63;;;18.40;32.30;;;;;;5012458;28;20218;-61
2022/12/17 19:02:11;;;;;;;7.37;6.87;;;18.40;32.20;;;;;;5011899;28;20252;-59
2022/12/17 19:04:37;;;;;;;6.30;5.90;;;18.40;32.20;;;;;;5014843;28;20249;-59
2022/12/17 19:07:02;;;;;;;6.80;6.20;;;18.40;32.20;;;;;;5018825;28;20535;-60
2022/12/17 19:09:34;;;;;;;6.33;5.90;;;18.40;32.30;;;;;;5011843;28;20289;-56
2022/12/17 19:12:00;;;;;;;7.03;6.40;;;18.40;32.20;;;;;;5012801;28;20230;-58
2022/12/17 19:14:25;;;;;;;7.20;6.70;;;18.40;32.30;;;;;;5016383;28;20421;-58
2022/12/17 19:16:53;;;;;;;6.90;6.30;;;18.40;32.20;;;;;;5015567;28;20215;-57
2022/12/17 19:19:19;;;;;;;6.27;5.83;;;18.40;32.20;;;;;;5014658;28;20227;-57
2022/12/17 19:21:44;;;;;;;6.97;6.50;;;18.40;32.30;;;;;;5016397;28;22552;-58
2022/12/17 19:24:13;;;;;;;7.50;6.90;;;18.40;32.20;;;;;;5009324;28;20797;-57
2022/12/17 19:26:40;;;;;;;6.33;5.90;;;18.40;32.20;;;;;;5017288;28;20250;-57
2022/12/17 19:29:07;;;;;;;6.17;5.80;;;18.40;32.20;;;;;;5015474;28;20464;-58
2022/12/17 19:31:33;;;;;;;6.30;5.80;;;18.40;32.20;;;;;;5015969;28;20493;-58
2022/12/17 19:34:02;;;;;;;6.80;6.40;;;18.40;32.20;;;;;;5016695;28;20853;-57
2022/12/17 19:36:29;;;;;;;6.40;5.90;;;18.40;32.20;;;;;;5018738;28;20440;-57
2022/12/17 19:38:57;;;;;;;7.07;6.57;;;18.40;32.30;;;;;;5017020;28;20430;-57
2022/12/17 19:41:25;;;;;;;6.50;6.00;;;18.40;32.20;;;;;;5018554;28;20445;-58
2022/12/17 19:43:55;;;;;;;6.87;6.23;;;18.40;32.20;;;;;;5017160;28;20566;-57
2022/12/17 19:46:22;;;;;;;7.00;6.50;;;18.40;32.20;;;;;;5018112;28;20434;-58
2022/12/17 19:48:48;;;;;;;6.63;6.13;;;18.40;32.20;;;;;;5018006;28;20450;-58
2022/12/17 19:51:15;;;;;;;6.30;5.80;;;18.40;32.20;;;;;;5013225;28;20459;-58
2022/12/17 19:53:43;;;;;;;5.90;5.50;;;18.40;32.20;;;;;;5013068;28;20472;-57
2022/12/17 19:56:10;;;;;;;5.33;5.03;;;18.40;32.20;;;;;;5016283;28;20926;-58
2022/12/17 19:58:36;;;;;;;6.67;6.17;;;18.40;32.30;;;;;;5015455;28;21273;-57
2022/12/17 20:01:13;;;;;;;7.20;6.70;;;18.40;32.20;;;;;;5016832;28;20439;-58
2022/12/17 20:03:40;;;;;;;6.00;5.70;;;18.40;32.30;;;;;;5015561;28;20226;-57
2022/12/17 20:06:07;;;;;;;7.13;6.43;;;18.40;32.30;;;;;;5017007;28;20437;-59
2022/12/17 20:08:33;;;;;;;6.40;5.80;;;18.40;32.20;;;;;;5014840;28;20435;-58
2022/12/17 20:11:31;;;;;;;8.83;5.73;;;18.40;32.20;;;;;;5016240;28;20435;-57
2022/12/17 20:14:12;;;;;;;6.47;5.97;;;18.40;32.20;;;;;;5016160;28;20437;-57
2022/12/17 20:16:40;;;;;;;6.30;5.80;;;18.40;32.30;;;;;;5000716;28;20501;-58
2022/12/17 20:19:09;;;;;;;6.27;5.87;;;18.40;32.30;;;;;;5019963;28;20610;-58
2022/12/17 20:21:35;;;;;;;6.80;6.23;;;18.40;32.20;;;;;;5020717;28;20979;-61
2022/12/17 20:24:00;;;;;;;6.20;5.80;;;18.40;32.30;;;;;;5021294;28;20426;-58
2022/12/17 20:26:26;;;;;;;6.40;5.93;;;18.40;32.20;;;;;;5021225;28;20693;-58
2022/12/17 20:28:53;;;;;;;6.17;5.80;;;18.40;32.20;;;;;;5016232;28;20234;-58
2022/12/17 20:31:18;;;;;;;6.27;5.67;;;18.40;32.20;;;;;;5020984;28;20222;-59
2022/12/17 20:33:44;;;;;;;5.90;5.50;;;18.40;32.30;;;;;;5024155;28;20418;-57
2022/12/17 20:36:12;;;;;;;6.07;5.67;;;18.40;32.20;;;;;;5024630;28;20218;-57
2022/12/17 20:38:39;;;;;;;5.73;5.33;;;18.40;32.30;;;;;;5020764;28;20690;-58
2022/12/17 20:41:13;;;;;;;6.40;5.87;;;18.40;32.20;;;;;;5021469;28;20464;-57
2022/12/17 20:43:39;;;;;;;6.20;5.90;;;18.40;32.20;;;;;;5020369;28;20480;-57
2022/12/17 20:46:06;;;;;;;6.50;6.00;;;18.40;32.20;;;;;;5023179;28;20434;-59
2022/12/17 20:48:31;;;;;;;6.00;5.60;;;18.40;32.20;;;;;;5021640;28;20457;-57
2022/12/17 20:50:57;;;;;;;6.40;5.97;;;18.40;32.20;;;;;;5020381;28;20471;-57
2022/12/17 20:53:23;;;;;;;5.43;5.13;;;18.40;32.20;;;;;;5020589;28;20211;-57
2022/12/17 20:56:01;;;;;;;7.00;6.40;;;18.40;32.20;;;;;;5020373;28;20789;-58
2022/12/17 20:58:27;;;;;;;6.00;5.60;;;18.40;32.20;;;;;;5019704;28;20249;-57
2022/12/17 21:01:01;;;;;;;6.00;5.60;;;18.40;32.20;;;;;;5019121;28;20452;-57
2022/12/17 21:03:27;;;;;;;6.43;5.97;;;18.40;32.20;;;;;;5015705;28;20718;-56
2022/12/17 21:05:52;;;;;;;6.20;5.80;;;18.40;32.30;;;;;;5017338;28;20654;-57
2022/12/17 21:08:18;;;;;;;5.83;5.43;;;18.40;32.20;;;;;;5020964;28;20229;-56
2022/12/17 21:10:43;;;;;;;6.00;5.50;;;18.40;32.20;;;;;;5018713;28;20223;-57
2022/12/17 21:16:09;;;;;;;5.53;5.10;;;18.40;32.20;;;;;;5002008;28;20242;-57
2022/12/17 21:18:35;;;;;;;6.00;5.47;;;18.50;32.30;;;;;;5015584;28;20423;-59
2022/12/17 21:21:09;;;;;;;7.70;5.63;;;18.50;32.30;;;;;;5011511;28;20441;-57
2022/12/17 21:23:37;;;;;;;5.10;4.70;;;18.50;32.30;;;;;;5020032;28;20242;-59
2022/12/17 21:26:06;;;;;;;5.73;5.33;;;18.50;32.40;;;;;;5021215;28;20427;-57
2022/12/17 21:28:34;;;;;;;5.40;4.93;;;18.50;32.30;;;;;;5017859;28;20434;-57
2022/12/17 21:31:01;;;;;;;5.60;5.10;;;18.50;32.30;;;;;;5016997;28;20854;-57
2022/12/17 21:33:27;;;;;;;5.90;5.40;;;18.50;32.30;;;;;;5017259;28;20517;-58
2022/12/17 21:36:04;;;;;;;6.03;5.60;;;18.60;32.40;;;;;;5023444;28;20441;-57
2022/12/17 21:38:30;;;;;;;6.10;5.70;;;18.60;32.40;;;;;;5020140;28;20451;-58
2022/12/17 21:41:02;;;;;;;5.87;5.47;;;18.60;32.40;;;;;;5018879;28;20418;-57
2022/12/17 21:43:28;;;;;;;5.10;4.80;;;18.60;32.50;;;;;;5019236;28;20507;-58
2022/12/17 21:45:56;;;;;;;5.47;5.03;;;18.60;32.40;;;;;;5020287;28;20431;-57
2022/12/17 21:48:22;;;;;;;5.17;4.87;;;18.60;32.40;;;;;;5020735;28;20214;-57
2022/12/17 21:50:47;;;;;;;5.27;4.87;;;18.60;32.40;;;;;;5014836;28;20889;-57
2022/12/17 21:53:13;;;;;;;5.10;4.80;;;18.60;32.40;;;;;;5021330;28;20233;-57
2022/12/17 21:55:38;;;;;;;4.43;4.13;;;18.60;32.40;;;;;;5015084;28;20220;-57
2022/12/17 21:58:05;;;;;;;4.77;4.47;;;18.60;32.40;;;;;;5019603;28;20756;-57
2022/12/17 22:00:30;;;;;;;5.83;5.43;;;18.60;32.40;;;;;;5019933;28;20243;-57
2022/12/17 22:02:56;;;;;;;4.57;4.20;;;18.60;32.40;;;;;;5018446;28;20923;-57
2022/12/17 22:05:21;;;;;;;5.00;4.60;;;18.60;32.40;;;;;;5018908;28;20669;-57
2022/12/17 22:07:47;;;;;;;4.90;4.60;;;18.60;32.40;;;;;;5013998;28;20223;-57
2022/12/17 22:10:13;;;;;;;4.90;4.60;;;18.60;32.50;;;;;;5016511;28;20261;-57
2022/12/17 22:15:23;;;;;;;5.07;4.77;;;18.60;32.40;;;;;;5018146;28;20830;-57
2022/12/17 22:17:51;;;;;;;4.83;4.53;;;18.60;32.40;;;;;;5019875;28;20431;-57
2022/12/17 22:20:17;;;;;;;5.30;4.90;;;18.50;32.30;;;;;;5019748;28;20268;-57
2022/12/17 22:22:43;;;;;;;7.70;5.47;;;18.60;32.40;;;;;;5023111;28;20435;-59
2022/12/17 22:25:10;;;;;;;5.40;5.00;;;18.50;32.30;;;;;;5022001;28;20304;-58
2022/12/17 22:27:35;;;;;;;4.63;4.33;;;18.60;32.50;;;;;;5023606;28;20423;-58
2022/12/17 22:33:05;;;;;;;4.63;4.33;;;18.60;32.40;;;;;;4958241;28;20727;-59
2022/12/17 22:35:41;;;;;;;4.50;4.30;;;18.50;32.30;;;;;;4960510;28;20437;-58
2022/12/17 22:38:07;;;;;;;5.27;4.90;;;18.50;32.30;;;;;;4990031;28;20214;-57
2022/12/17 22:40:34;;;;;;;3.90;3.70;;;18.50;32.30;;;;;;5022176;28;20419;-58
2022/12/17 22:45:43;;;;;;;5.13;4.80;;;18.50;32.30;;;;;;5019757;28;20786;-58
2022/12/17 22:48:11;;;;;;;5.03;4.63;;;18.50;32.30;;;;;;5022894;28;20452;-58
2022/12/17 22:50:37;;;;;;;5.23;4.93;;;18.50;32.30;;;;;;5022119;28;20234;-57
2022/12/17 22:53:03;;;;;;;4.13;3.93;;;18.50;32.30;;;;;;5022745;28;20427;-58
2022/12/17 22:55:29;;;;;;;4.87;4.57;;;18.50;32.30;;;;;;5024045;28;20905;-58
2022/12/17 22:57:55;;;;;;;4.67;4.37;;;18.50;32.40;;;;;;5022678;28;20222;-57
2022/12/17 23:00:23;;;;;;;5.07;4.77;;;18.50;33.10;;;;;;5019160;28;20671;-57
2022/12/17 23:02:52;;;;;;;5.00;4.60;;;18.50;32.30;;;;;;5022391;28;20233;-58
2022/12/17 23:05:18;;;;;;;5.00;4.60;;;18.50;32.30;;;;;;5020964;28;20506;-57
2022/12/17 23:07:43;;;;;;;4.07;3.87;;;18.50;32.30;;;;;;5021604;28;20539;-57
2022/12/17 23:10:09;;;;;;;4.67;4.43;;;18.50;32.40;;;;;;5022144;28;20427;-58
2022/12/17 23:12:51;;;;;;;4.80;4.50;;;18.50;32.30;;;;;;5023365;28;20229;-58
2022/12/17 23:15:18;;;;;;;5.27;4.97;;;18.50;32.40;;;;;;5019027;28;20449;-57
2022/12/17 23:17:44;;;;;;;4.03;3.83;;;18.50;32.30;;;;;;5021725;28;20563;-59
2022/12/17 23:20:11;;;;;;;4.30;4.10;;;18.50;32.40;;;;;;5020691;28;20501;-58
2022/12/17 23:22:36;;;;;;;3.90;3.70;;;18.50;32.30;;;;;;5021739;28;20229;-58
2022/12/17 23:25:03;;;;;;;4.83;4.10;;;18.50;32.30;;;;;;5023243;28;20418;-57
2022/12/17 23:27:28;;;;;;;4.50;4.20;;;18.50;32.30;;;;;;5022017;28;20248;-58
2022/12/17 23:29:54;;;;;;;4.30;4.00;;;18.50;32.30;;;;;;5022512;28;20772;-57
2022/12/17 23:32:19;;;;;;;4.73;4.43;;;18.50;32.30;;;;;;5021494;28;20568;-57
2022/12/17 23:34:45;;;;;;;4.80;4.50;;;18.50;32.40;;;;;;5021033;28;20223;-58
2022/12/17 23:37:10;;;;;;;5.20;4.77;;;18.50;32.30;;;;;;5022449;28;20223;-57
2022/12/17 23:39:36;;;;;;;4.57;4.30;;;18.50;32.30;;;;;;5022234;28;20677;-57
2022/12/17 23:42:01;;;;;;;4.23;4.03;;;18.50;32.30;;;;;;5023411;28;20246;-58
2022/12/17 23:44:27;;;;;;;4.40;4.10;;;18.50;32.40;;;;;;5019167;28;20250;-57
2022/12/17 23:46:52;;;;;;;3.90;3.70;;;18.50;32.30;;;;;;5016753;28;20232;-58
2022/12/17 23:49:18;;;;;;;4.10;3.90;;;18.50;32.30;;;;;;5017782;28;20245;-57
2022/12/17 23:51:43;;;;;;;4.30;4.00;;;18.50;32.30;;;;;;5002659;28;20341;-58
2022/12/17 23:54:09;;;;;;;4.50;4.20;;;18.50;32.30;;;;;;5005318;28;20689;-57
2022/12/17 23:56:35;;;;;;;3.97;3.77;;;18.50;32.30;;;;;;5022750;28;20233;-57
2022/12/17 23:59:02;;;;;;;4.80;4.40;;;18.50;32.30;;;;;;5022704;28;20678;-57
